map of KJWY home
KJWY - Airport
Location
City:  Midlothian/Waxahachie, Texas, United States
Name:Mid-Way Regional
ICAO:KJWY
FAA LID:JWY

Details
Type:Airport (Airfield)
Use:Public/Civil
Latitude:3227'30"N (32.458293)
Longitude:9654'45"W (-96.912525)
Datum:WGS 1984
Elevation:727 ft (222 m)
Variation:3.27E (WMM2015 magnetic declination)
-0.11 annual change
Runways:1
Longest:6500 × 100 ft (1981 × 30.5 m), paved

Time
Time Zone:UTC-6 (DST-5)
Local Time:

Weather
METAR:KJWY 181415Z AUTO 05005G15KT 10SM OVC042 15/11 A3039 RMK AO2 T01460105

Related Locations
Nearby:
Farthest:RRG: 10939 mi / 17605 km
Plaine Corail [Sir Gatan Duval Airport (Plaine Corail Airport)], Rodrigues Island, MU

Find:

   beyond  
but within

Other Information
Maps:
NOTAMs:
Links:
Sources:

  
  • flag of United States
  • flag of Texas
  

Sectional Chart

Flight Planning
at skyvector.com

Satellite Image

Google Maps Satellite view

 

Copyright © 2004-2018 Karl L. Swartz. All rights reserved.
The Great Circle Mapper name and logo are trademarks of the Great Circle Mapper.
All other trademarks mentioned herein belong to their respective owners.
Please see credits for attibutions and further copyright information.

  Follow gcmap on Facebook Follow gcmap on Twitter Follow gcmap on Google+ GCmap on LinkedIn

hCard Microformat

Geo Microformat